Reklama
Líbí se Vám tento web? Budeme velmi rádi, pokud přidáte hodnocení +1

Seznam meteostanic a jejich METAR

Vyhledat místa podle abecedy:
A B C D E F G H I J K L M N O P Q R S T U V W X Y Z

Filtrovat:

ID stanice:
a/nebo
Název místa (fulltext):
 
Místo (ID)Naposledy načteno 
Náměšť nad Oslavou (Namest n/O) 21.06.2018 02:00 UTC Zobrazit data
Místo: Náměšť nad Oslavou
Teplota: 19 °C (pocitová: 18.5 °C)
Vítr: 2 m/s z(e) 30°
Počasí: oblačno
Dohlednost: 20 km
Zákl. oblačnosti: 4/8 1800 m
Vlhkost: 64%
N'Djamena (FTTJ) 20.06.2018 12:00 UTC Zobrazit METAR
FTTJ 201200Z VRB03KT 9999 SCT040 31/21 Q1011 NOSIG
Nairobi (HKJK) 20.06.2018 18:00 UTC Zobrazit METAR
HKJK 201800Z 09005KT 9999 BKN024 18/14 Q1024
Nantes/ Atlantique (LFRS) 21.06.2018 02:00 UTC Zobrazit METAR
LFRS 210200Z AUTO 02007KT 350V050 CAVOK 17/15 Q1020 NOSIG
Nassau (MYNN) 21.06.2018 02:00 UTC Zobrazit METAR
MYNN 210200Z VRB02KT 9999 SCT018 BKN200 26/25 A2998
Nauru (ANAU) Zatím nenačteno  
Nausori (NFNA) 21.06.2018 02:00 UTC Zobrazit METAR
NFNA 210200Z 00000KT 9999 SCT022 29/23 Q1012
New York (KNYC) 21.06.2018 01:51 UTC Zobrazit METAR
KNYC 210151Z AUTO VRB04KT 10SM OVC060 24/18 A2980 RMK AO2 SLP081 T02440183 $
Newcastle (EGNT) 21.06.2018 01:50 UTC Zobrazit METAR
EGNT 210150Z 28013KT CAVOK 08/05 Q1018
Niamey (DRRN) 21.06.2018 02:00 UTC Zobrazit METAR
DRRN 210200Z 18008KT CAVOK 27/19 Q1011 NOSIG
Nice/ Cote D'Azur (LFMN) 21.06.2018 02:00 UTC Zobrazit METAR
LFMN 210200Z 34007KT CAVOK 25/15 Q1017 NOSIG
Niue Island (NIUE) 21.06.2018 02:00 UTC Zobrazit METAR
NIUE 210200Z 07008KT 030V100 9999 SCT018 BKN300 28/23 Q1013
Nizhny Novgorod (UWGG) 13.10.2017 15:00 UTC Zobrazit METAR
UWGG 131500Z 9000 NSC 10/07 Q1006 R18R/290050 NOSIG RMK QFE747
North Caicos I. (MBNC) Zatím nenačteno  
Nouakchott (GQNN) 23.06.2016 11:00 UTC Zobrazit METAR
GQNN 231100Z 23009KT 180V250 7000 BKN010 25/18 Q1013 NOSIG
Noumea (NWWM) Zatím nenačteno  
Nuku'alofa (NFTF) 21.06.2018 02:00 UTC Zobrazit METAR
NFTF 210200Z 01010KT 9999 FEW020 28/22 Q1013
Reklama

Počasí na Váš email

Emaily jsou bez reklamy a bez spamu



Odhlásit newsletter

Reklama


Lunární kalendář

  • 28.06.
  • 06.07.
  • 13.07.
  • 19.07.



Slunečno.cz na Google+

Reklama


Reklama
Povinné ručení
Reklama




Reklama